Aviation Digital Data Service (ADDS)

Output produced by METARs form (2129 UTC 24 May 2017)
found at http://aviationweather.gov/adds/metars/
 
KDCA 242041Z 2421/2518 12009KT P6SM BKN025 OVC050 
     FM250200 09010G18KT 2SM RA BR BKN008 OVC015 
     FM250800 09008KT 5SM -RA BR BKN008 OVC015 
     FM251300 19006KT P6SM BKN015 OVC050 
     FM251600 20008KT P6SM BKN030